Time;durP1;ratioP1;P1;durP2;ratioP2;P2;SDS_P1;SDS_P2;PMS_P1;PMS_P2;Temp;Humidity;BMP_temperature;BMP_pressure;BME280_temperature;BME280_humidity;BME280_pressure;Samples;Min_cycle;Max_cycle;Signal;HPM_P1;HPM_P2
2021/10/20 00:01:28;;;;;;;;;;;20.30;51.50;;;;;;500214;238;1233;-47
2021/10/20 00:03:28;;;;;;;;;;;20.30;51.50;;;;;;499873;238;2230;-47
2021/10/20 00:05:29;;;;;;;;;;;20.30;51.50;;;;;;500052;238;1062;-47
2021/10/20 00:07:31;;;;;;;;;;;20.40;51.40;;;;;;500084;238;1328;-47
2021/10/20 00:09:32;;;;;;;;;;;20.40;51.40;;;;;;500121;238;1031;-47
2021/10/20 00:11:33;;;;;;;;;;;20.40;51.40;;;;;;499806;238;1262;-47
2021/10/20 00:13:35;;;;;;;;;;;20.30;51.40;;;;;;499927;238;1061;-47
2021/10/20 00:15:36;;;;;;;;;;;20.40;51.50;;;;;;500363;238;1266;-47
2021/10/20 00:17:37;;;;;;;;;;;20.40;51.50;;;;;;499954;238;1326;-48
2021/10/20 00:19:38;;;;;;;;;;;20.30;51.50;;;;;;500046;238;2168;-47
2021/10/20 00:21:40;;;;;;;;;;;20.30;51.50;;;;;;499847;238;1068;-47
2021/10/20 00:23:41;;;;;;;;;;;20.30;51.50;;;;;;500240;238;957;-47
2021/10/20 00:25:43;;;;;;;;;;;20.30;51.60;;;;;;499903;238;964;-47
2021/10/20 00:27:44;;;;;;;;;;;20.30;51.50;;;;;;499850;238;1702;-47
2021/10/20 00:29:46;;;;;;;;;;;20.30;51.50;;;;;;499907;238;1068;-47
2021/10/20 00:31:47;;;;;;;;;;;20.30;51.60;;;;;;499984;238;1009;-47
2021/10/20 00:33:48;;;;;;;;;;;20.30;51.60;;;;;;500100;238;1067;-47
2021/10/20 00:35:49;;;;;;;;;;;20.30;51.60;;;;;;499900;238;1071;-47
2021/10/20 00:37:51;;;;;;;;;;;20.40;51.60;;;;;;500354;238;1294;-47
2021/10/20 00:39:52;;;;;;;;;;;20.40;51.50;;;;;;500237;238;2108;-47
2021/10/20 00:41:53;;;;;;;;;;;20.40;51.60;;;;;;499954;238;1262;-47
2021/10/20 00:43:55;;;;;;;;;;;20.30;51.60;;;;;;499887;238;1055;-47
2021/10/20 00:45:56;;;;;;;;;;;20.40;51.50;;;;;;499807;238;1304;-47
2021/10/20 00:47:57;;;;;;;;;;;20.30;51.40;;;;;;499979;238;1163;-48
2021/10/20 00:49:59;;;;;;;;;;;20.40;51.60;;;;;;500083;238;1063;-47
2021/10/20 00:52:00;;;;;;;;;;;20.30;51.50;;;;;;500333;238;1331;-47
2021/10/20 00:54:01;;;;;;;;;;;20.40;51.50;;;;;;500366;238;1022;-48
2021/10/20 00:56:03;;;;;;;;;;;20.40;51.60;;;;;;499873;238;1016;-47
2021/10/20 00:58:04;;;;;;;;;;;20.30;51.60;;;;;;500035;238;1192;-47
2021/10/20 01:00:05;;;;;;;;;;;20.30;51.50;;;;;;500361;238;2121;-47
2021/10/20 01:02:06;;;;;;;;;;;20.30;51.50;;;;;;500255;238;1350;-48
2021/10/20 01:04:08;;;;;;;;;;;20.30;51.60;;;;;;500327;238;1069;-48
2021/10/20 01:06:10;;;;;;;;;;;20.40;51.60;;;;;;499900;238;1431;-48
2021/10/20 01:08:11;;;;;;;;;;;20.30;51.60;;;;;;499829;238;2445;-48
2021/10/20 01:10:12;;;;;;;;;;;20.30;51.60;;;;;;499953;238;2239;-48
2021/10/20 01:12:13;;;;;;;;;;;20.30;51.50;;;;;;499855;238;1620;-47
2021/10/20 01:14:14;;;;;;;;;;;20.30;51.50;;;;;;499885;238;1237;-48
2021/10/20 01:16:16;;;;;;;;;;;20.30;51.50;;;;;;500024;238;1316;-48
2021/10/20 01:18:17;;;;;;;;;;;20.40;51.60;;;;;;500331;238;1016;-48
2021/10/20 01:20:18;;;;;;;;;;;20.30;51.50;;;;;;499912;238;2112;-47
2021/10/20 01:22:20;;;;;;;;;;;20.30;51.50;;;;;;499878;238;1060;-47
2021/10/20 01:24:21;;;;;;;;;;;20.30;51.50;;;;;;500046;238;1018;-47
2021/10/20 01:26:22;;;;;;;;;;;20.30;51.60;;;;;;500208;238;1159;-48
2021/10/20 01:28:24;;;;;;;;;;;20.30;51.50;;;;;;499843;238;1140;-47
2021/10/20 01:30:25;;;;;;;;;;;20.30;51.50;;;;;;499888;238;976;-48
2021/10/20 01:32:27;;;;;;;;;;;20.30;51.60;;;;;;500091;238;1097;-48
2021/10/20 01:34:28;;;;;;;;;;;20.30;51.60;;;;;;499931;238;1129;-47
2021/10/20 01:36:29;;;;;;;;;;;20.30;51.60;;;;;;499872;238;1049;-47
2021/10/20 01:38:30;;;;;;;;;;;20.30;51.60;;;;;;499873;238;1054;-48
2021/10/20 01:40:32;;;;;;;;;;;20.40;51.60;;;;;;500018;238;2109;-47
2021/10/20 01:42:33;;;;;;;;;;;20.30;51.60;;;;;;499881;238;1270;-48
2021/10/20 01:44:34;;;;;;;;;;;20.30;51.50;;;;;;499966;238;1187;-47
2021/10/20 01:46:36;;;;;;;;;;;20.40;51.50;;;;;;500325;238;1495;-47
2021/10/20 01:48:37;;;;;;;;;;;20.30;51.50;;;;;;500183;238;1100;-48
2021/10/20 01:50:38;;;;;;;;;;;20.30;51.60;;;;;;499934;238;1149;-47
2021/10/20 01:52:39;;;;;;;;;;;20.30;51.70;;;;;;500378;238;1201;-47
2021/10/20 01:54:41;;;;;;;;;;;20.30;51.50;;;;;;499910;238;1062;-47
2021/10/20 01:56:42;;;;;;;;;;;20.30;51.50;;;;;;499862;238;1150;-47
2021/10/20 01:58:43;;;;;;;;;;;20.40;51.50;;;;;;499892;238;1207;-47
2021/10/20 02:00:45;;;;;;;;;;;20.40;51.60;;;;;;500191;238;2191;-47
2021/10/20 02:02:46;;;;;;;;;;;20.30;51.50;;;;;;500336;238;1168;-47
2021/10/20 02:04:47;;;;;;;;;;;20.30;51.50;;;;;;500079;238;1069;-47
2021/10/20 02:06:49;;;;;;;;;;;20.30;51.50;;;;;;499845;238;1221;-47
2021/10/20 02:08:50;;;;;;;;;;;20.30;51.50;;;;;;500319;238;1055;-47
2021/10/20 02:10:52;;;;;;;;;;;20.30;51.60;;;;;;500193;238;1097;-47
2021/10/20 02:12:53;;;;;;;;;;;20.30;51.70;;;;;;499943;238;1112;-48
2021/10/20 02:14:54;;;;;;;;;;;20.30;51.60;;;;;;499932;238;1220;-48
2021/10/20 02:16:56;;;;;;;;;;;20.30;51.60;;;;;;499796;235;1184;-47
2021/10/20 02:18:57;;;;;;;;;;;20.30;51.60;;;;;;500434;238;1078;-48
2021/10/20 02:20:58;;;;;;;;;;;20.30;51.60;;;;;;500147;238;1030;-48
2021/10/20 02:23:00;;;;;;;;;;;20.30;51.60;;;;;;499892;238;1236;-47
2021/10/20 02:25:01;;;;;;;;;;;20.30;51.50;;;;;;500263;238;1045;-47
2021/10/20 02:27:02;;;;;;;;;;;20.30;51.50;;;;;;500304;238;1330;-47
2021/10/20 02:29:04;;;;;;;;;;;20.30;51.50;;;;;;500188;238;1184;-48
2021/10/20 02:31:05;;;;;;;;;;;20.30;51.60;;;;;;499852;238;1236;-47
2021/10/20 02:33:06;;;;;;;;;;;20.30;51.70;;;;;;499847;238;1267;-47
2021/10/20 02:35:08;;;;;;;;;;;20.30;51.70;;;;;;500396;238;1032;-47
2021/10/20 02:37:09;;;;;;;;;;;20.40;51.60;;;;;;499875;238;1340;-47
2021/10/20 02:39:11;;;;;;;;;;;20.40;51.50;;;;;;500337;238;2190;-47
2021/10/20 02:41:12;;;;;;;;;;;20.30;51.50;;;;;;500331;238;1368;-47
2021/10/20 02:43:13;;;;;;;;;;;20.30;51.50;;;;;;500375;238;1147;-47
2021/10/20 02:45:14;;;;;;;;;;;20.30;51.60;;;;;;499976;238;1154;-47
2021/10/20 02:47:16;;;;;;;;;;;20.30;51.50;;;;;;500022;238;1373;-47
2021/10/20 02:49:17;;;;;;;;;;;20.30;51.60;;;;;;499856;238;1040;-48
2021/10/20 02:51:18;;;;;;;;;;;20.30;51.50;;;;;;500188;238;1465;-47
2021/10/20 02:53:20;;;;;;;;;;;20.30;51.50;;;;;;499863;238;1122;-48
2021/10/20 02:55:21;;;;;;;;;;;20.30;51.50;;;;;;500369;238;1061;-48
2021/10/20 02:57:22;;;;;;;;;;;20.30;51.60;;;;;;499865;238;1082;-48
2021/10/20 02:59:24;;;;;;;;;;;20.30;51.50;;;;;;500215;238;2152;-47
2021/10/20 03:01:25;;;;;;;;;;;20.30;51.60;;;;;;500009;234;1320;-48
2021/10/20 03:03:26;;;;;;;;;;;20.30;51.70;;;;;;499828;238;1285;-48
2021/10/20 03:05:28;;;;;;;;;;;20.30;51.60;;;;;;499925;238;988;-47
2021/10/20 03:07:29;;;;;;;;;;;20.30;51.50;;;;;;499797;238;1361;-47
2021/10/20 03:09:30;;;;;;;;;;;20.30;51.60;;;;;;500021;238;1028;-47
2021/10/20 03:11:32;;;;;;;;;;;20.30;51.60;;;;;;500293;238;1101;-47
2021/10/20 03:13:33;;;;;;;;;;;20.30;51.50;;;;;;499920;238;997;-47
2021/10/20 03:15:34;;;;;;;;;;;20.30;51.60;;;;;;500009;238;1213;-48
2021/10/20 03:17:36;;;;;;;;;;;20.30;51.50;;;;;;500274;238;1076;-47
2021/10/20 03:19:37;;;;;;;;;;;20.40;51.50;;;;;;499983;238;2199;-47
2021/10/20 03:21:38;;;;;;;;;;;20.30;51.50;;;;;;500324;238;1066;-47
2021/10/20 03:23:40;;;;;;;;;;;20.30;51.60;;;;;;500379;238;1092;-47
2021/10/20 03:25:41;;;;;;;;;;;20.30;51.60;;;;;;500107;238;1192;-47
2021/10/20 03:27:42;;;;;;;;;;;20.30;51.60;;;;;;499838;238;1289;-47
2021/10/20 03:29:43;;;;;;;;;;;20.30;51.60;;;;;;500201;238;1280;-47
2021/10/20 03:31:45;;;;;;;;;;;20.30;51.60;;;;;;500107;238;1205;-47
2021/10/20 03:33:46;;;;;;;;;;;20.30;51.60;;;;;;499907;238;1092;-48
2021/10/20 03:35:47;;;;;;;;;;;20.30;51.60;;;;;;499880;238;1274;-48
2021/10/20 03:37:49;;;;;;;;;;;20.30;51.60;;;;;;499847;238;1170;-47
2021/10/20 03:39:50;;;;;;;;;;;20.30;51.60;;;;;;500191;238;2165;-48
2021/10/20 03:41:51;;;;;;;;;;;20.30;51.50;;;;;;499886;238;1205;-47
2021/10/20 03:43:53;;;;;;;;;;;20.30;51.50;;;;;;499938;238;1064;-47
2021/10/20 03:45:54;;;;;;;;;;;20.30;51.60;;;;;;499870;238;1392;-47
2021/10/20 03:47:55;;;;;;;;;;;20.30;51.70;;;;;;499871;238;1210;-47
2021/10/20 03:49:57;;;;;;;;;;;20.30;51.60;;;;;;499914;238;1075;-47
2021/10/20 03:51:58;;;;;;;;;;;20.30;51.60;;;;;;499906;238;1203;-48
2021/10/20 03:53:59;;;;;;;;;;;20.30;51.50;;;;;;500352;238;998;-48
2021/10/20 03:56:01;;;;;;;;;;;20.30;51.60;;;;;;499767;238;1123;-47
2021/10/20 03:58:03;;;;;;;;;;;20.30;51.50;;;;;;499964;238;1163;-47
2021/10/20 04:00:03;;;;;;;;;;;20.30;51.50;;;;;;499704;238;2511;-47
2021/10/20 04:02:05;;;;;;;;;;;20.30;51.50;;;;;;500042;238;1294;-47
2021/10/20 04:04:06;;;;;;;;;;;20.30;51.50;;;;;;500252;238;1087;-47
2021/10/20 04:06:08;;;;;;;;;;;20.40;51.50;;;;;;500277;238;1197;-48
2021/10/20 04:08:08;;;;;;;;;;;20.30;51.50;;;;;;499809;238;2274;-48
2021/10/20 04:10:10;;;;;;;;;;;20.30;51.50;;;;;;500350;238;1170;-48
2021/10/20 04:12:11;;;;;;;;;;;20.30;51.60;;;;;;500019;238;1336;-47
2021/10/20 04:14:12;;;;;;;;;;;20.30;51.60;;;;;;500337;238;1005;-47
2021/10/20 04:16:14;;;;;;;;;;;20.30;51.50;;;;;;499884;238;1296;-47
2021/10/20 04:18:15;;;;;;;;;;;20.30;51.50;;;;;;500226;238;1098;-48
2021/10/20 04:20:16;;;;;;;;;;;20.30;51.50;;;;;;499960;238;2196;-47
2021/10/20 04:22:18;;;;;;;;;;;20.30;51.60;;;;;;499690;238;1080;-48
2021/10/20 04:24:19;;;;;;;;;;;20.30;51.60;;;;;;500231;238;1054;-48
2021/10/20 04:26:20;;;;;;;;;;;20.30;51.60;;;;;;499965;238;1321;-48
2021/10/20 04:28:22;;;;;;;;;;;20.30;51.60;;;;;;499793;238;1276;-47
2021/10/20 04:30:24;;;;;;;;;;;20.30;51.60;;;;;;499648;238;1274;-47
2021/10/20 04:32:25;;;;;;;;;;;20.30;51.60;;;;;;499638;238;1137;-47
2021/10/20 04:34:26;;;;;;;;;;;20.30;51.60;;;;;;499626;238;1030;-47
2021/10/20 04:36:27;;;;;;;;;;;20.30;51.50;;;;;;499677;238;1385;-48
2021/10/20 04:38:29;;;;;;;;;;;20.30;51.50;;;;;;499677;238;1344;-47
2021/10/20 04:40:30;;;;;;;;;;;20.30;51.40;;;;;;499626;238;2184;-47
2021/10/20 04:42:31;;;;;;;;;;;20.30;51.50;;;;;;499575;238;1258;-48
2021/10/20 04:44:32;;;;;;;;;;;20.30;51.50;;;;;;499767;238;1089;-47
2021/10/20 04:46:34;;;;;;;;;;;20.30;51.50;;;;;;499745;238;1279;-47
2021/10/20 04:48:35;;;;;;;;;;;20.30;51.50;;;;;;499677;238;1049;-48
2021/10/20 04:50:36;;;;;;;;;;;20.30;51.50;;;;;;499778;238;1121;-47
2021/10/20 04:52:38;;;;;;;;;;;20.30;51.50;;;;;;499685;238;1138;-47
2021/10/20 04:54:39;;;;;;;;;;;20.30;51.50;;;;;;499802;238;1108;-47
2021/10/20 04:56:40;;;;;;;;;;;20.40;51.50;;;;;;499652;238;1939;-47
2021/10/20 04:58:42;;;;;;;;;;;20.30;51.50;;;;;;499673;238;1183;-47
2021/10/20 05:00:43;;;;;;;;;;;20.40;51.40;;;;;;499553;238;2191;-48
2021/10/20 05:02:44;;;;;;;;;;;20.30;51.50;;;;;;499549;238;1144;-47
2021/10/20 05:04:46;;;;;;;;;;;20.40;51.40;;;;;;499693;238;1043;-48
2021/10/20 05:06:47;;;;;;;;;;;20.40;51.40;;;;;;499623;238;1521;-47
2021/10/20 05:08:48;;;;;;;;;;;20.40;51.40;;;;;;499737;238;1101;-48
2021/10/20 05:10:50;;;;;;;;;;;20.30;51.40;;;;;;499609;238;1163;-48
2021/10/20 05:12:51;;;;;;;;;;;20.30;51.50;;;;;;499550;238;1308;-48
2021/10/20 05:14:52;;;;;;;;;;;20.30;51.50;;;;;;499526;238;1180;-47
2021/10/20 05:16:54;;;;;;;;;;;20.30;51.50;;;;;;499629;238;1359;-47
2021/10/20 05:18:55;;;;;;;;;;;20.30;51.60;;;;;;499626;238;1046;-48
2021/10/20 05:20:57;;;;;;;;;;;20.30;51.50;;;;;;499625;238;2125;-47
2021/10/20 05:22:58;;;;;;;;;;;20.30;51.50;;;;;;499848;238;1263;-47
2021/10/20 05:24:59;;;;;;;;;;;20.40;51.50;;;;;;499636;238;1040;-48
2021/10/20 05:27:01;;;;;;;;;;;20.30;51.50;;;;;;499749;235;1310;-47
2021/10/20 05:29:02;;;;;;;;;;;20.30;51.50;;;;;;499587;238;1072;-47
2021/10/20 05:31:03;;;;;;;;;;;20.30;51.50;;;;;;499672;238;1155;-48
2021/10/20 05:33:05;;;;;;;;;;;20.40;51.50;;;;;;499519;238;1098;-47
2021/10/20 05:35:06;;;;;;;;;;;20.30;51.50;;;;;;499588;238;1052;-47
2021/10/20 05:37:07;;;;;;;;;;;20.30;51.50;;;;;;499562;238;1188;-48
2021/10/20 05:39:09;;;;;;;;;;;20.30;51.50;;;;;;499569;238;1037;-47
2021/10/20 05:41:10;;;;;;;;;;;20.30;51.50;;;;;;499628;238;2191;-47
2021/10/20 05:43:11;;;;;;;;;;;20.40;51.50;;;;;;499651;238;1062;-48
2021/10/20 05:45:13;;;;;;;;;;;20.30;51.50;;;;;;499414;238;1084;-47
2021/10/20 05:47:14;;;;;;;;;;;20.30;51.50;;;;;;499445;238;1170;-48
2021/10/20 05:49:15;;;;;;;;;;;20.30;51.50;;;;;;499449;238;1067;-47
2021/10/20 05:51:17;;;;;;;;;;;20.40;51.50;;;;;;499449;238;1074;-47
2021/10/20 05:53:18;;;;;;;;;;;20.40;51.50;;;;;;499496;238;1044;-47
2021/10/20 05:55:19;;;;;;;;;;;20.30;51.50;;;;;;499533;238;1323;-47
2021/10/20 05:57:22;;;;;;;;;;;20.30;51.40;;;;;;499443;238;1056;-47
2021/10/20 05:59:23;;;;;;;;;;;20.40;51.50;;;;;;499467;238;2063;-47
2021/10/20 06:01:23;;;;;;;;;;;20.40;51.50;;;;;;499359;238;2188;-47
2021/10/20 06:03:25;;;;;;;;;;;20.30;51.40;;;;;;499400;238;1216;-48
2021/10/20 06:05:26;;;;;;;;;;;20.40;51.40;;;;;;499415;238;1067;-47
2021/10/20 06:07:27;;;;;;;;;;;20.30;51.50;;;;;;499481;238;1195;-47
2021/10/20 06:09:29;;;;;;;;;;;20.30;51.60;;;;;;499304;238;1236;-47
2021/10/20 06:11:30;;;;;;;;;;;20.30;51.50;;;;;;499217;238;1105;-47
2021/10/20 06:13:31;;;;;;;;;;;20.30;51.50;;;;;;499196;238;1171;-48
2021/10/20 06:15:33;;;;;;;;;;;20.30;51.50;;;;;;499445;238;1146;-47
2021/10/20 06:17:34;;;;;;;;;;;20.30;51.50;;;;;;499192;238;1143;-47
2021/10/20 06:19:35;;;;;;;;;;;20.30;51.50;;;;;;499403;238;1072;-47
2021/10/20 06:21:37;;;;;;;;;;;20.30;51.60;;;;;;499377;238;2149;-48
2021/10/20 06:23:39;;;;;;;;;;;20.30;51.50;;;;;;499339;238;1230;-47
2021/10/20 06:25:40;;;;;;;;;;;20.30;51.50;;;;;;499192;238;1319;-48
2021/10/20 06:27:41;;;;;;;;;;;20.30;51.50;;;;;;499014;238;1219;-48
2021/10/20 06:29:42;;;;;;;;;;;20.30;51.50;;;;;;499063;238;1061;-48
2021/10/20 06:31:44;;;;;;;;;;;20.40;51.50;;;;;;499020;238;1224;-47
2021/10/20 06:33:45;;;;;;;;;;;20.30;51.40;;;;;;499161;238;1068;-48
2021/10/20 06:35:46;;;;;;;;;;;20.30;51.50;;;;;;499175;238;1193;-48
2021/10/20 06:37:48;;;;;;;;;;;20.30;51.60;;;;;;499124;238;1098;-47
2021/10/20 06:39:49;;;;;;;;;;;20.30;51.60;;;;;;498851;238;1142;-47
2021/10/20 06:41:51;;;;;;;;;;;20.30;51.50;;;;;;499141;238;2192;-47
2021/10/20 06:43:52;;;;;;;;;;;20.30;51.50;;;;;;499118;238;1093;-47
2021/10/20 06:45:53;;;;;;;;;;;20.40;51.50;;;;;;498941;238;1155;-47
2021/10/20 06:47:55;;;;;;;;;;;20.30;51.40;;;;;;498996;238;1224;-48
2021/10/20 06:49:56;;;;;;;;;;;20.30;51.40;;;;;;499219;238;1074;-47
2021/10/20 06:51:57;;;;;;;;;;;20.30;51.50;;;;;;499039;238;1117;-48
2021/10/20 06:53:59;;;;;;;;;;;20.30;51.50;;;;;;499075;238;1074;-48
2021/10/20 06:56:00;;;;;;;;;;;20.30;51.50;;;;;;499161;238;1057;-47
2021/10/20 06:58:01;;;;;;;;;;;20.30;51.50;;;;;;499438;238;1163;-48
2021/10/20 07:00:03;;;;;;;;;;;20.30;51.40;;;;;;498983;238;1079;-48
2021/10/20 07:02:04;;;;;;;;;;;20.30;51.50;;;;;;498723;238;2192;-48
2021/10/20 07:04:05;;;;;;;;;;;20.30;51.40;;;;;;498983;238;1248;-47
2021/10/20 07:06:07;;;;;;;;;;;20.40;51.40;;;;;;498927;238;1117;-47
2021/10/20 07:08:08;;;;;;;;;;;20.40;51.40;;;;;;499031;238;1194;-47
2021/10/20 07:10:10;;;;;;;;;;;20.40;51.40;;;;;;498952;238;1115;-48
2021/10/20 07:12:11;;;;;;;;;;;20.40;51.50;;;;;;499196;238;1330;-47
2021/10/20 07:14:12;;;;;;;;;;;20.30;51.40;;;;;;498923;238;1118;-47
2021/10/20 07:16:14;;;;;;;;;;;20.30;51.40;;;;;;498808;234;1311;-47
2021/10/20 07:18:15;;;;;;;;;;;20.40;51.50;;;;;;498779;238;1239;-48
2021/10/20 07:20:16;;;;;;;;;;;20.40;51.40;;;;;;498884;238;1122;-47
2021/10/20 07:22:18;;;;;;;;;;;20.30;51.40;;;;;;498768;238;2176;-48
2021/10/20 07:24:19;;;;;;;;;;;20.40;51.50;;;;;;499067;238;1108;-47
2021/10/20 07:26:21;;;;;;;;;;;20.40;51.40;;;;;;498865;238;1993;-47
2021/10/20 07:28:22;;;;;;;;;;;20.40;51.40;;;;;;499032;238;1109;-48
2021/10/20 07:30:24;;;;;;;;;;;20.40;51.30;;;;;;498857;238;1063;-48
2021/10/20 07:32:25;;;;;;;;;;;20.40;51.40;;;;;;498649;237;1330;-48
2021/10/20 07:34:26;;;;;;;;;;;20.40;51.40;;;;;;498938;238;1218;-47
2021/10/20 07:36:28;;;;;;;;;;;20.40;51.50;;;;;;498747;238;1118;-48
2021/10/20 07:38:29;;;;;;;;;;;20.40;51.50;;;;;;498928;238;1079;-47
2021/10/20 07:40:30;;;;;;;;;;;20.40;51.50;;;;;;498785;238;1112;-47
2021/10/20 07:42:33;;;;;;;;;;;20.40;51.50;;;;;;498658;238;2187;-47
2021/10/20 07:44:34;;;;;;;;;;;20.30;51.60;;;;;;498650;238;1065;-47
2021/10/20 07:46:35;;;;;;;;;;;20.30;51.50;;;;;;498563;238;1090;-47
2021/10/20 07:48:36;;;;;;;;;;;20.30;51.50;;;;;;498702;238;1256;-47
2021/10/20 07:50:39;;;;;;;;;;;20.30;51.60;;;;;;498904;238;1064;-47
2021/10/20 07:52:39;;;;;;;;;;;20.30;51.50;;;;;;498767;238;2015;-48
2021/10/20 07:54:40;;;;;;;;;;;20.30;51.60;;;;;;498930;238;1600;-47
2021/10/20 07:56:43;;;;;;;;;;;20.40;51.50;;;;;;498893;238;1225;-48
2021/10/20 07:58:43;;;;;;;;;;;20.30;51.50;;;;;;498865;238;2295;-48
2021/10/20 08:00:44;;;;;;;;;;;20.30;51.60;;;;;;498956;238;1080;-48
2021/10/20 08:02:46;;;;;;;;;;;20.30;51.60;;;;;;498923;238;2179;-47
2021/10/20 08:04:47;;;;;;;;;;;20.40;51.50;;;;;;498930;238;1158;-47
2021/10/20 08:06:48;;;;;;;;;;;20.40;51.50;;;;;;498827;238;1231;-48
2021/10/20 08:08:50;;;;;;;;;;;20.40;51.50;;;;;;498869;238;1343;-48
2021/10/20 08:10:51;;;;;;;;;;;20.40;51.40;;;;;;498717;238;1114;-48
2021/10/20 08:12:52;;;;;;;;;;;20.40;51.40;;;;;;498809;238;1229;-47
2021/10/20 08:14:56;;;;;;;;;;;20.40;51.50;;;;;;498710;238;1205;-48
2021/10/20 08:16:55;;;;;;;;;;;20.40;51.50;;;;;;498496;238;2029;-47
2021/10/20 08:18:56;;;;;;;;;;;20.40;51.50;;;;;;498744;238;1275;-47
2021/10/20 08:20:57;;;;;;;;;;;20.40;51.50;;;;;;498871;238;1600;-47
2021/10/20 08:22:59;;;;;;;;;;;20.40;51.50;;;;;;499170;238;2168;-48
2021/10/20 08:25:00;;;;;;;;;;;20.40;51.50;;;;;;499189;238;867;-47
2021/10/20 08:29:15;;;;;;;;;;;20.30;50.70;;;;;;507582;233;1117;-49
2021/10/20 08:31:16;;;;;;;;;;;20.30;51.60;;;;;;499438;238;1171;-49
2021/10/20 08:33:18;;;;;;;;;;;20.30;51.60;;;;;;500241;237;1106;-49
2021/10/20 08:35:19;;;;;;;;;;;20.30;51.60;;;;;;500168;237;819;-49
2021/10/20 08:37:20;;;;;;;;;;;20.30;51.50;;;;;;499598;237;1136;-49
2021/10/20 08:39:22;;;;;;;;;;;20.30;51.60;;;;;;500360;237;1048;-49
2021/10/20 08:41:23;;;;;;;;;;;20.30;51.60;;;;;;499434;237;1225;-46
2021/10/20 08:43:24;;;;;;;;;;;20.30;51.60;;;;;;499929;237;1443;-47
2021/10/20 08:45:26;;;;;;;;;;;20.30;51.60;;;;;;500411;237;1015;-46
2021/10/20 08:47:27;;;;;;;;;;;20.30;51.60;;;;;;499716;237;2188;-46
2021/10/20 08:49:28;;;;;;;;;;;20.30;51.60;;;;;;499566;237;1185;-46
2021/10/20 08:51:30;;;;;;;;;;;20.30;51.60;;;;;;499335;237;1074;-46
2021/10/20 08:53:31;;;;;;;;;;;20.30;51.70;;;;;;499801;237;2043;-46
2021/10/20 08:55:32;;;;;;;;;;;20.30;51.50;;;;;;500362;237;1268;-46
2021/10/20 08:57:34;;;;;;;;;;;20.40;51.60;;;;;;500322;237;1230;-47
2021/10/20 08:59:35;;;;;;;;;;;20.40;51.50;;;;;;499830;237;1120;-46
2021/10/20 09:01:37;;;;;;;;;;;20.40;51.60;;;;;;499654;237;1099;-46
2021/10/20 09:03:38;;;;;;;;;;;20.40;51.60;;;;;;499913;237;981;-47
2021/10/20 09:05:39;;;;;;;;;;;20.30;51.60;;;;;;499981;237;810;-46
2021/10/20 09:07:40;;;;;;;;;;;20.30;51.60;;;;;;500351;237;2247;-46
2021/10/20 09:09:42;;;;;;;;;;;20.30;51.60;;;;;;499613;237;1046;-46
2021/10/20 09:11:43;;;;;;;;;;;20.40;51.60;;;;;;499424;237;1162;-46
2021/10/20 09:13:44;;;;;;;;;;;20.30;51.60;;;;;;499482;237;1190;-47
2021/10/20 09:15:46;;;;;;;;;;;20.40;51.60;;;;;;499186;237;1034;-46
2021/10/20 09:17:47;;;;;;;;;;;20.40;51.60;;;;;;499187;237;1239;-46
2021/10/20 09:19:48;;;;;;;;;;;20.40;51.60;;;;;;499118;237;1376;-47
2021/10/20 09:21:50;;;;;;;;;;;20.40;51.50;;;;;;499238;237;1154;-46
2021/10/20 09:23:51;;;;;;;;;;;20.40;51.50;;;;;;499387;237;1101;-47
2021/10/20 09:25:56;;;;;;;;;;;20.40;51.50;;;;;;499489;237;1358;-46
2021/10/20 09:27:54;;;;;;;;;;;20.40;51.50;;;;;;499354;238;2180;-46
2021/10/20 09:29:55;;;;;;;;;;;20.40;51.50;;;;;;499470;237;1225;-46
2021/10/20 09:31:57;;;;;;;;;;;20.40;51.50;;;;;;499584;237;1341;-46
2021/10/20 09:33:58;;;;;;;;;;;20.40;51.50;;;;;;500025;237;1043;-46
2021/10/20 09:35:59;;;;;;;;;;;20.40;51.60;;;;;;499461;237;1539;-46
2021/10/20 09:38:01;;;;;;;;;;;20.30;51.50;;;;;;499508;237;1238;-46
2021/10/20 09:40:02;;;;;;;;;;;20.40;51.60;;;;;;499296;237;1054;-46
2021/10/20 09:42:03;;;;;;;;;;;20.40;51.60;;;;;;499410;237;1334;-47
2021/10/20 09:44:05;;;;;;;;;;;20.40;51.50;;;;;;499947;237;1164;-47
2021/10/20 09:46:06;;;;;;;;;;;20.30;51.50;;;;;;499466;237;1158;-47
2021/10/20 09:48:07;;;;;;;;;;;20.40;51.60;;;;;;499269;237;2128;-46
2021/10/20 09:50:08;;;;;;;;;;;20.30;51.60;;;;;;499345;237;1105;-46
2021/10/20 09:52:10;;;;;;;;;;;20.30;51.50;;;;;;499015;237;1291;-47
2021/10/20 09:54:11;;;;;;;;;;;20.30;51.50;;;;;;498894;237;1187;-46
2021/10/20 09:56:13;;;;;;;;;;;20.30;51.60;;;;;;499258;237;1339;-48
2021/10/20 09:58:14;;;;;;;;;;;20.30;51.60;;;;;;499411;237;1176;-46
2021/10/20 10:00:15;;;;;;;;;;;20.30;51.70;;;;;;499219;237;1216;-47
2021/10/20 10:02:17;;;;;;;;;;;20.30;51.70;;;;;;499245;237;1199;-46
2021/10/20 10:04:18;;;;;;;;;;;20.30;51.70;;;;;;499329;237;1087;-46
2021/10/20 10:06:19;;;;;;;;;;;20.40;51.60;;;;;;499333;235;1245;-47
2021/10/20 10:08:21;;;;;;;;;;;20.30;51.60;;;;;;500128;237;2187;-46
2021/10/20 10:10:22;;;;;;;;;;;20.30;51.60;;;;;;499682;237;882;-47
2021/10/20 10:12:23;;;;;;;;;;;20.30;51.60;;;;;;499459;237;1020;-46
2021/10/20 10:14:25;;;;;;;;;;;20.30;51.60;;;;;;499859;237;1175;-46
2021/10/20 10:16:27;;;;;;;;;;;20.30;51.60;;;;;;499497;237;1207;-46
2021/10/20 10:18:28;;;;;;;;;;;20.30;51.70;;;;;;499607;237;904;-46
2021/10/20 10:20:31;;;;;;;;;;;20.30;51.60;;;;;;499601;237;1230;-46
2021/10/20 10:22:31;;;;;;;;;;;20.30;51.70;;;;;;499342;238;2099;-46
2021/10/20 10:24:32;;;;;;;;;;;20.30;51.60;;;;;;499336;237;1076;-46
2021/10/20 10:26:33;;;;;;;;;;;20.40;51.70;;;;;;499077;237;1335;-47
2021/10/20 10:28:35;;;;;;;;;;;20.30;51.60;;;;;;499216;237;2192;-47
2021/10/20 10:30:36;;;;;;;;;;;20.30;51.60;;;;;;499340;237;1174;-47
2021/10/20 10:32:37;;;;;;;;;;;20.30;51.70;;;;;;499157;237;1176;-46
2021/10/20 10:34:39;;;;;;;;;;;20.30;51.70;;;;;;499373;237;1362;-47
2021/10/20 10:36:40;;;;;;;;;;;20.30;51.60;;;;;;499096;237;1316;-47
2021/10/20 10:38:41;;;;;;;;;;;20.30;51.60;;;;;;499230;237;1107;-46
2021/10/20 10:40:43;;;;;;;;;;;20.30;51.70;;;;;;499329;237;1396;-46
2021/10/20 10:42:44;;;;;;;;;;;20.30;51.70;;;;;;499720;237;1215;-47
2021/10/20 10:44:45;;;;;;;;;;;20.30;51.60;;;;;;499409;237;1204;-47
2021/10/20 10:46:47;;;;;;;;;;;20.30;51.60;;;;;;499120;237;1226;-47
2021/10/20 10:48:48;;;;;;;;;;;20.40;51.50;;;;;;499245;237;2108;-47
2021/10/20 10:50:50;;;;;;;;;;;20.40;51.50;;;;;;499302;237;1063;-47
2021/10/20 10:52:51;;;;;;;;;;;20.40;51.50;;;;;;499287;237;1421;-46
2021/10/20 10:54:52;;;;;;;;;;;20.30;51.50;;;;;;499279;237;1090;-47
2021/10/20 10:56:54;;;;;;;;;;;20.40;51.70;;;;;;498975;237;1131;-46
2021/10/20 10:58:55;;;;;;;;;;;20.30;51.60;;;;;;499147;237;1069;-47
2021/10/20 11:00:56;;;;;;;;;;;20.30;51.70;;;;;;499127;237;1235;-47
2021/10/20 11:02:58;;;;;;;;;;;20.30;51.70;;;;;;499122;237;1363;-47
2021/10/20 11:05:02;;;;;;;;;;;20.30;51.70;;;;;;499114;237;1108;-47
2021/10/20 11:07:00;;;;;;;;;;;20.30;51.60;;;;;;498843;238;2045;-47
2021/10/20 11:09:01;;;;;;;;;;;20.30;51.60;;;;;;499053;237;2172;-47
2021/10/20 11:11:04;;;;;;;;;;;20.30;51.60;;;;;;499211;237;1231;-47
2021/10/20 11:13:04;;;;;;;;;;;20.30;51.60;;;;;;499204;237;1561;-47
2021/10/20 11:15:06;;;;;;;;;;;20.30;51.70;;;;;;499267;237;1201;-47
2021/10/20 11:17:07;;;;;;;;;;;20.30;51.70;;;;;;499174;237;1398;-47
2021/10/20 11:19:08;;;;;;;;;;;20.40;51.70;;;;;;499598;237;1093;-47
2021/10/20 11:21:10;;;;;;;;;;;20.30;51.70;;;;;;499534;237;1296;-47
2021/10/20 11:23:11;;;;;;;;;;;20.30;51.60;;;;;;499980;237;1424;-47
2021/10/20 11:25:12;;;;;;;;;;;20.40;51.60;;;;;;500127;237;874;-47
2021/10/20 11:27:14;;;;;;;;;;;20.40;51.60;;;;;;499821;237;1182;-47
2021/10/20 11:31:18;;;;;;;;;;;20.40;51.60;;;;;;494350;236;3449;-48
2021/10/20 11:33:19;;;;;;;;;;;20.30;51.60;;;;;;493901;239;1071;-47
2021/10/20 11:35:21;;;;;;;;;;;20.30;51.60;;;;;;493870;239;957;-48
2021/10/20 11:37:23;;;;;;;;;;;20.30;51.60;;;;;;493738;239;1263;-47
2021/10/20 11:39:29;;;;;;;;;;;20.30;51.60;;;;;;493775;239;1089;-47
2021/10/20 11:41:25;;;;;;;;;;;20.30;51.80;;;;;;493483;241;1972;-47
2021/10/20 11:43:27;;;;;;;;;;;20.30;51.70;;;;;;493732;239;1197;-47
2021/10/20 11:45:28;;;;;;;;;;;20.30;51.80;;;;;;494030;239;1349;-47
2021/10/20 11:47:29;;;;;;;;;;;20.30;51.70;;;;;;493801;239;1271;-47
2021/10/20 11:49:30;;;;;;;;;;;20.30;51.60;;;;;;493823;239;2123;-47
2021/10/20 11:51:32;;;;;;;;;;;20.30;51.70;;;;;;493760;239;1177;-47
2021/10/20 11:53:33;;;;;;;;;;;20.30;51.60;;;;;;493894;239;1052;-47
2021/10/20 11:55:35;;;;;;;;;;;20.30;51.60;;;;;;493572;239;1087;-47
2021/10/20 11:57:37;;;;;;;;;;;20.30;51.70;;;;;;493662;239;1272;-47
2021/10/20 11:59:38;;;;;;;;;;;20.30;51.70;;;;;;494210;239;2242;-47
2021/10/20 12:01:39;;;;;;;;;;;20.40;51.60;;;;;;493706;237;1271;-46